sensor_id;sensor_type;location;lat;lon;timestamp;P1;durP1;ratioP1;P2;durP2;ratioP2
12760;SDS011;6444;49.742;6.114;2023-09-30T00:02:15;22.35;;;13.45;;
12760;SDS011;6444;49.742;6.114;2023-09-30T00:04:42;30.45;;;15.00;;
12760;SDS011;6444;49.742;6.114;2023-09-30T00:07:09;25.98;;;14.10;;
12760;SDS011;6444;49.742;6.114;2023-09-30T00:09:35;33.85;;;18.98;;
12760;SDS011;6444;49.742;6.114;2023-09-30T00:12:02;31.77;;;14.98;;
12760;SDS011;6444;49.742;6.114;2023-09-30T00:14:28;25.58;;;15.00;;
12760;SDS011;6444;49.742;6.114;2023-09-30T00:16:55;35.67;;;17.17;;
12760;SDS011;6444;49.742;6.114;2023-09-30T00:19:22;35.28;;;15.93;;
12760;SDS011;6444;49.742;6.114;2023-09-30T00:21:48;53.53;;;16.30;;
12760;SDS011;6444;49.742;6.114;2023-09-30T00:24:15;52.80;;;15.40;;
12760;SDS011;6444;49.742;6.114;2023-09-30T00:26:42;45.67;;;15.40;;
12760;SDS011;6444;49.742;6.114;2023-09-30T00:29:09;40.05;;;14.52;;
12760;SDS011;6444;49.742;6.114;2023-09-30T00:31:36;96.35;;;17.60;;
12760;SDS011;6444;49.742;6.114;2023-09-30T00:34:02;43.90;;;14.32;;
12760;SDS011;6444;49.742;6.114;2023-09-30T00:36:29;85.78;;;17.27;;
12760;SDS011;6444;49.742;6.114;2023-09-30T00:38:56;54.35;;;15.85;;
12760;SDS011;6444;49.742;6.114;2023-09-30T00:41:23;47.95;;;14.48;;
12760;SDS011;6444;49.742;6.114;2023-09-30T00:43:50;59.53;;;15.68;;
12760;SDS011;6444;49.742;6.114;2023-09-30T00:46:29;88.53;;;17.55;;
12760;SDS011;6444;49.742;6.114;2023-09-30T00:48:55;48.60;;;14.73;;
12760;SDS011;6444;49.742;6.114;2023-09-30T00:51:22;41.55;;;14.45;;
12760;SDS011;6444;49.742;6.114;2023-09-30T00:53:49;34.33;;;14.27;;
12760;SDS011;6444;49.742;6.114;2023-09-30T00:56:15;63.92;;;15.35;;
12760;SDS011;6444;49.742;6.114;2023-09-30T00:58:41;77.20;;;15.73;;
12760;SDS011;6444;49.742;6.114;2023-09-30T01:01:08;108.12;;;21.62;;
12760;SDS011;6444;49.742;6.114;2023-09-30T01:03:35;80.25;;;15.80;;
12760;SDS011;6444;49.742;6.114;2023-09-30T01:06:01;57.60;;;14.68;;
12760;SDS011;6444;49.742;6.114;2023-09-30T01:08:28;51.03;;;14.48;;
12760;SDS011;6444;49.742;6.114;2023-09-30T01:10:55;79.10;;;17.60;;
12760;SDS011;6444;49.742;6.114;2023-09-30T01:13:21;68.50;;;14.13;;
12760;SDS011;6444;49.742;6.114;2023-09-30T01:15:48;61.60;;;12.98;;
12760;SDS011;6444;49.742;6.114;2023-09-30T01:18:15;51.58;;;13.15;;
12760;SDS011;6444;49.742;6.114;2023-09-30T01:20:42;85.35;;;14.85;;
12760;SDS011;6444;49.742;6.114;2023-09-30T01:23:09;61.15;;;14.63;;
12760;SDS011;6444;49.742;6.114;2023-09-30T01:25:35;54.28;;;15.45;;
12760;SDS011;6444;49.742;6.114;2023-09-30T01:28:03;50.58;;;15.27;;
12760;SDS011;6444;49.742;6.114;2023-09-30T01:30:29;77.03;;;16.25;;
12760;SDS011;6444;49.742;6.114;2023-09-30T01:32:56;49.13;;;16.35;;
12760;SDS011;6444;49.742;6.114;2023-09-30T01:35:22;64.28;;;15.07;;
12760;SDS011;6444;49.742;6.114;2023-09-30T01:37:49;60.45;;;16.15;;
12760;SDS011;6444;49.742;6.114;2023-09-30T01:40:16;87.65;;;16.25;;
12760;SDS011;6444;49.742;6.114;2023-09-30T01:42:42;75.65;;;15.93;;
12760;SDS011;6444;49.742;6.114;2023-09-30T01:45:09;103.30;;;16.85;;
12760;SDS011;6444;49.742;6.114;2023-09-30T01:47:36;118.45;;;17.87;;
12760;SDS011;6444;49.742;6.114;2023-09-30T01:50:02;72.37;;;15.02;;
12760;SDS011;6444;49.742;6.114;2023-09-30T01:52:29;48.58;;;13.45;;
12760;SDS011;6444;49.742;6.114;2023-09-30T01:54:56;53.42;;;18.08;;
12760;SDS011;6444;49.742;6.114;2023-09-30T01:57:22;71.85;;;16.02;;
12760;SDS011;6444;49.742;6.114;2023-09-30T01:59:49;31.48;;;12.63;;
12760;SDS011;6444;49.742;6.114;2023-09-30T02:02:16;61.97;;;14.90;;
12760;SDS011;6444;49.742;6.114;2023-09-30T02:04:42;42.88;;;17.55;;
12760;SDS011;6444;49.742;6.114;2023-09-30T02:07:09;62.00;;;15.02;;
12760;SDS011;6444;49.742;6.114;2023-09-30T02:09:35;114.55;;;18.10;;
12760;SDS011;6444;49.742;6.114;2023-09-30T02:12:02;92.35;;;17.50;;
12760;SDS011;6444;49.742;6.114;2023-09-30T02:14:29;112.90;;;18.23;;
12760;SDS011;6444;49.742;6.114;2023-09-30T02:16:56;98.18;;;16.60;;
12760;SDS011;6444;49.742;6.114;2023-09-30T02:19:23;45.22;;;12.93;;
12760;SDS011;6444;49.742;6.114;2023-09-30T02:21:49;90.20;;;15.57;;
12760;SDS011;6444;49.742;6.114;2023-09-30T02:24:16;86.03;;;15.45;;
12760;SDS011;6444;49.742;6.114;2023-09-30T02:26:43;144.85;;;19.70;;
12760;SDS011;6444;49.742;6.114;2023-09-30T02:29:09;42.03;;;12.77;;
12760;SDS011;6444;49.742;6.114;2023-09-30T02:31:36;56.30;;;14.63;;
12760;SDS011;6444;49.742;6.114;2023-09-30T02:34:03;53.67;;;13.95;;
12760;SDS011;6444;49.742;6.114;2023-09-30T02:36:30;37.65;;;13.43;;
12760;SDS011;6444;49.742;6.114;2023-09-30T02:38:57;53.33;;;13.55;;
12760;SDS011;6444;49.742;6.114;2023-09-30T02:41:23;47.03;;;13.18;;
12760;SDS011;6444;49.742;6.114;2023-09-30T02:43:50;66.40;;;14.27;;
12760;SDS011;6444;49.742;6.114;2023-09-30T02:46:16;110.95;;;15.63;;
12760;SDS011;6444;49.742;6.114;2023-09-30T02:48:43;68.72;;;13.75;;
12760;SDS011;6444;49.742;6.114;2023-09-30T02:51:10;97.90;;;14.13;;
12760;SDS011;6444;49.742;6.114;2023-09-30T02:53:36;80.57;;;15.43;;
12760;SDS011;6444;49.742;6.114;2023-09-30T02:56:03;48.42;;;13.93;;
12760;SDS011;6444;49.742;6.114;2023-09-30T02:58:30;82.70;;;14.82;;
12760;SDS011;6444;49.742;6.114;2023-09-30T03:00:56;69.93;;;18.55;;
12760;SDS011;6444;49.742;6.114;2023-09-30T03:03:23;103.32;;;17.30;;
12760;SDS011;6444;49.742;6.114;2023-09-30T03:05:50;62.30;;;15.43;;
12760;SDS011;6444;49.742;6.114;2023-09-30T03:08:16;59.65;;;14.25;;
12760;SDS011;6444;49.742;6.114;2023-09-30T03:10:43;46.28;;;13.68;;
12760;SDS011;6444;49.742;6.114;2023-09-30T03:13:09;39.75;;;13.50;;
12760;SDS011;6444;49.742;6.114;2023-09-30T03:15:36;57.13;;;18.52;;
12760;SDS011;6444;49.742;6.114;2023-09-30T03:18:03;62.78;;;14.45;;
12760;SDS011;6444;49.742;6.114;2023-09-30T03:20:30;36.17;;;12.80;;
12760;SDS011;6444;49.742;6.114;2023-09-30T03:22:57;132.02;;;17.25;;
12760;SDS011;6444;49.742;6.114;2023-09-30T03:25:23;44.10;;;12.45;;
12760;SDS011;6444;49.742;6.114;2023-09-30T03:27:50;35.17;;;12.13;;
12760;SDS011;6444;49.742;6.114;2023-09-30T03:30:17;29.55;;;12.45;;
12760;SDS011;6444;49.742;6.114;2023-09-30T03:32:43;31.62;;;11.65;;
12760;SDS011;6444;49.742;6.114;2023-09-30T03:35:11;34.70;;;12.37;;
12760;SDS011;6444;49.742;6.114;2023-09-30T03:37:37;36.63;;;12.32;;
12760;SDS011;6444;49.742;6.114;2023-09-30T03:40:04;33.28;;;12.00;;
12760;SDS011;6444;49.742;6.114;2023-09-30T03:42:31;62.40;;;12.77;;
12760;SDS011;6444;49.742;6.114;2023-09-30T03:44:57;126.90;;;20.90;;
12760;SDS011;6444;49.742;6.114;2023-09-30T03:47:24;41.72;;;12.90;;
12760;SDS011;6444;49.742;6.114;2023-09-30T03:49:50;59.85;;;13.27;;
12760;SDS011;6444;49.742;6.114;2023-09-30T03:52:17;41.03;;;12.10;;
12760;SDS011;6444;49.742;6.114;2023-09-30T03:54:44;35.97;;;11.38;;
12760;SDS011;6444;49.742;6.114;2023-09-30T03:57:10;34.60;;;12.57;;
12760;SDS011;6444;49.742;6.114;2023-09-30T03:59:37;46.08;;;13.35;;
12760;SDS011;6444;49.742;6.114;2023-09-30T04:02:04;86.32;;;13.77;;
12760;SDS011;6444;49.742;6.114;2023-09-30T04:04:30;63.28;;;13.45;;
12760;SDS011;6444;49.742;6.114;2023-09-30T04:06:57;104.18;;;15.00;;
12760;SDS011;6444;49.742;6.114;2023-09-30T04:09:23;36.35;;;12.23;;
12760;SDS011;6444;49.742;6.114;2023-09-30T04:11:50;93.62;;;13.80;;
12760;SDS011;6444;49.742;6.114;2023-09-30T04:14:17;78.70;;;15.48;;
12760;SDS011;6444;49.742;6.114;2023-09-30T04:16:43;111.40;;;13.30;;
12760;SDS011;6444;49.742;6.114;2023-09-30T04:19:10;76.97;;;15.05;;
12760;SDS011;6444;49.742;6.114;2023-09-30T04:21:37;40.10;;;12.02;;
12760;SDS011;6444;49.742;6.114;2023-09-30T04:24:03;62.00;;;11.60;;
12760;SDS011;6444;49.742;6.114;2023-09-30T04:26:30;38.47;;;10.93;;
12760;SDS011;6444;49.742;6.114;2023-09-30T04:28:57;96.37;;;12.80;;
12760;SDS011;6444;49.742;6.114;2023-09-30T04:31:23;54.22;;;11.77;;
12760;SDS011;6444;49.742;6.114;2023-09-30T04:33:50;110.75;;;13.90;;
12760;SDS011;6444;49.742;6.114;2023-09-30T04:36:19;88.00;;;12.35;;
12760;SDS011;6444;49.742;6.114;2023-09-30T04:38:46;87.15;;;11.98;;
12760;SDS011;6444;49.742;6.114;2023-09-30T04:41:12;71.90;;;12.27;;
12760;SDS011;6444;49.742;6.114;2023-09-30T04:43:39;40.47;;;11.43;;
12760;SDS011;6444;49.742;6.114;2023-09-30T04:46:06;76.37;;;13.62;;
12760;SDS011;6444;49.742;6.114;2023-09-30T04:48:35;31.42;;;10.68;;
12760;SDS011;6444;49.742;6.114;2023-09-30T04:51:05;46.92;;;12.25;;
12760;SDS011;6444;49.742;6.114;2023-09-30T04:53:28;12.82;;;6.82;;
12760;SDS011;6444;49.742;6.114;2023-09-30T04:55:55;18.05;;;8.23;;
12760;SDS011;6444;49.742;6.114;2023-09-30T04:58:22;17.10;;;10.52;;
12760;SDS011;6444;49.742;6.114;2023-09-30T05:00:48;22.10;;;8.38;;
12760;SDS011;6444;49.742;6.114;2023-09-30T05:03:15;21.20;;;8.07;;
12760;SDS011;6444;49.742;6.114;2023-09-30T05:05:41;20.85;;;8.68;;
12760;SDS011;6444;49.742;6.114;2023-09-30T05:08:08;16.23;;;8.05;;
12760;SDS011;6444;49.742;6.114;2023-09-30T05:10:35;22.73;;;8.02;;
12760;SDS011;6444;49.742;6.114;2023-09-30T05:13:01;36.53;;;8.80;;
12760;SDS011;6444;49.742;6.114;2023-09-30T05:15:28;18.45;;;8.43;;
12760;SDS011;6444;49.742;6.114;2023-09-30T05:17:55;29.33;;;9.27;;
12760;SDS011;6444;49.742;6.114;2023-09-30T05:20:21;39.83;;;8.88;;
12760;SDS011;6444;49.742;6.114;2023-09-30T05:22:48;19.12;;;8.63;;
12760;SDS011;6444;49.742;6.114;2023-09-30T05:25:15;97.45;;;13.80;;
12760;SDS011;6444;49.742;6.114;2023-09-30T05:27:42;26.83;;;10.55;;
12760;SDS011;6444;49.742;6.114;2023-09-30T05:30:08;23.75;;;10.82;;
12760;SDS011;6444;49.742;6.114;2023-09-30T05:32:35;40.20;;;11.32;;
12760;SDS011;6444;49.742;6.114;2023-09-30T05:35:02;30.73;;;14.60;;
12760;SDS011;6444;49.742;6.114;2023-09-30T05:37:28;24.40;;;11.50;;
12760;SDS011;6444;49.742;6.114;2023-09-30T05:39:55;54.17;;;12.00;;
12760;SDS011;6444;49.742;6.114;2023-09-30T05:42:22;38.13;;;11.90;;
12760;SDS011;6444;49.742;6.114;2023-09-30T05:44:48;48.47;;;11.38;;
12760;SDS011;6444;49.742;6.114;2023-09-30T05:47:15;57.53;;;10.15;;
12760;SDS011;6444;49.742;6.114;2023-09-30T05:49:42;40.55;;;9.18;;
12760;SDS011;6444;49.742;6.114;2023-09-30T05:52:08;100.35;;;12.13;;
12760;SDS011;6444;49.742;6.114;2023-09-30T05:54:35;40.00;;;9.13;;
12760;SDS011;6444;49.742;6.114;2023-09-30T05:57:01;27.95;;;9.23;;
12760;SDS011;6444;49.742;6.114;2023-09-30T05:59:28;27.83;;;8.85;;
12760;SDS011;6444;49.742;6.114;2023-09-30T06:01:55;32.60;;;13.18;;
12760;SDS011;6444;49.742;6.114;2023-09-30T06:04:21;139.60;;;15.35;;
12760;SDS011;6444;49.742;6.114;2023-09-30T06:06:48;63.08;;;12.00;;
12760;SDS011;6444;49.742;6.114;2023-09-30T06:09:15;29.40;;;10.75;;
12760;SDS011;6444;49.742;6.114;2023-09-30T06:11:41;34.83;;;10.95;;
12760;SDS011;6444;49.742;6.114;2023-09-30T06:14:08;53.75;;;11.68;;
12760;SDS011;6444;49.742;6.114;2023-09-30T06:16:34;44.55;;;11.27;;
12760;SDS011;6444;49.742;6.114;2023-09-30T06:19:02;56.83;;;11.20;;
12760;SDS011;6444;49.742;6.114;2023-09-30T06:21:28;33.78;;;7.85;;
12760;SDS011;6444;49.742;6.114;2023-09-30T06:23:55;15.05;;;6.85;;
12760;SDS011;6444;49.742;6.114;2023-09-30T06:26:22;27.73;;;6.47;;
12760;SDS011;6444;49.742;6.114;2023-09-30T06:28:48;11.43;;;6.05;;
12760;SDS011;6444;49.742;6.114;2023-09-30T06:31:15;12.15;;;5.75;;
12760;SDS011;6444;49.742;6.114;2023-09-30T06:33:42;12.05;;;5.32;;
12760;SDS011;6444;49.742;6.114;2023-09-30T06:36:09;25.50;;;7.30;;
12760;SDS011;6444;49.742;6.114;2023-09-30T06:38:36;46.80;;;8.10;;
12760;SDS011;6444;49.742;6.114;2023-09-30T06:41:02;83.43;;;11.75;;
12760;SDS011;6444;49.742;6.114;2023-09-30T06:43:29;30.08;;;7.97;;
12760;SDS011;6444;49.742;6.114;2023-09-30T06:45:56;82.37;;;9.35;;
12760;SDS011;6444;49.742;6.114;2023-09-30T06:48:23;80.60;;;9.13;;
12760;SDS011;6444;49.742;6.114;2023-09-30T06:50:50;69.00;;;8.32;;
12760;SDS011;6444;49.742;6.114;2023-09-30T06:53:16;56.75;;;7.43;;
12760;SDS011;6444;49.742;6.114;2023-09-30T06:55:43;46.53;;;7.40;;
12760;SDS011;6444;49.742;6.114;2023-09-30T06:58:09;44.97;;;7.37;;
12760;SDS011;6444;49.742;6.114;2023-09-30T07:00:36;222.52;;;17.25;;
12760;SDS011;6444;49.742;6.114;2023-09-30T07:03:08;58.60;;;8.07;;
12760;SDS011;6444;49.742;6.114;2023-09-30T07:05:39;58.83;;;7.35;;
12760;SDS011;6444;49.742;6.114;2023-09-30T07:08:04;41.60;;;6.40;;
12760;SDS011;6444;49.742;6.114;2023-09-30T07:10:31;75.03;;;9.98;;
12760;SDS011;6444;49.742;6.114;2023-09-30T07:12:58;44.78;;;13.00;;
12760;SDS011;6444;49.742;6.114;2023-09-30T07:15:24;148.60;;;113.60;;
12760;SDS011;6444;49.742;6.114;2023-09-30T07:17:51;67.75;;;9.00;;
12760;SDS011;6444;49.742;6.114;2023-09-30T07:20:17;60.03;;;9.35;;
12760;SDS011;6444;49.742;6.114;2023-09-30T07:22:44;42.47;;;6.95;;
12760;SDS011;6444;49.742;6.114;2023-09-30T07:25:11;62.97;;;8.73;;
12760;SDS011;6444;49.742;6.114;2023-09-30T07:27:37;45.53;;;7.65;;
12760;SDS011;6444;49.742;6.114;2023-09-30T07:30:04;44.55;;;8.07;;
12760;SDS011;6444;49.742;6.114;2023-09-30T07:32:31;56.30;;;8.95;;
12760;SDS011;6444;49.742;6.114;2023-09-30T07:34:57;86.70;;;10.15;;
12760;SDS011;6444;49.742;6.114;2023-09-30T07:37:24;110.43;;;8.93;;
12760;SDS011;6444;49.742;6.114;2023-09-30T07:39:51;41.20;;;5.18;;
12760;SDS011;6444;49.742;6.114;2023-09-30T07:42:17;55.53;;;7.05;;
12760;SDS011;6444;49.742;6.114;2023-09-30T07:44:44;108.20;;;8.70;;
12760;SDS011;6444;49.742;6.114;2023-09-30T07:47:11;83.20;;;7.78;;
12760;SDS011;6444;49.742;6.114;2023-09-30T07:49:38;62.60;;;7.03;;
12760;SDS011;6444;49.742;6.114;2023-09-30T07:52:04;13.68;;;5.00;;
12760;SDS011;6444;49.742;6.114;2023-09-30T07:54:30;25.12;;;6.72;;
12760;SDS011;6444;49.742;6.114;2023-09-30T07:56:57;7.43;;;4.72;;
12760;SDS011;6444;49.742;6.114;2023-09-30T07:59:24;7.40;;;4.72;;
12760;SDS011;6444;49.742;6.114;2023-09-30T08:01:50;9.23;;;4.60;;
12760;SDS011;6444;49.742;6.114;2023-09-30T08:04:17;11.55;;;5.07;;
12760;SDS011;6444;49.742;6.114;2023-09-30T08:06:44;11.50;;;4.93;;
12760;SDS011;6444;49.742;6.114;2023-09-30T08:09:14;6.20;;;4.45;;
12760;SDS011;6444;49.742;6.114;2023-09-30T08:11:41;4.12;;;3.75;;
12760;SDS011;6444;49.742;6.114;2023-09-30T08:14:07;6.15;;;3.95;;
12760;SDS011;6444;49.742;6.114;2023-09-30T08:16:34;11.05;;;3.42;;
12760;SDS011;6444;49.742;6.114;2023-09-30T08:19:01;6.30;;;4.10;;
12760;SDS011;6444;49.742;6.114;2023-09-30T08:21:27;4.12;;;3.72;;
12760;SDS011;6444;49.742;6.114;2023-09-30T08:23:54;5.82;;;3.78;;
12760;SDS011;6444;49.742;6.114;2023-09-30T08:26:20;4.12;;;3.75;;
12760;SDS011;6444;49.742;6.114;2023-09-30T08:28:47;14.50;;;12.95;;
12760;SDS011;6444;49.742;6.114;2023-09-30T08:31:14;17.37;;;9.05;;
12760;SDS011;6444;49.742;6.114;2023-09-30T08:33:40;14.70;;;13.20;;
12760;SDS011;6444;49.742;6.114;2023-09-30T08:36:07;22.02;;;4.80;;
12760;SDS011;6444;49.742;6.114;2023-09-30T08:38:35;5.82;;;3.70;;
12760;SDS011;6444;49.742;6.114;2023-09-30T08:41:00;9.23;;;3.67;;
12760;SDS011;6444;49.742;6.114;2023-09-30T08:43:27;4.72;;;3.87;;
12760;SDS011;6444;49.742;6.114;2023-09-30T08:45:53;3.80;;;3.50;;
12760;SDS011;6444;49.742;6.114;2023-09-30T08:48:20;18.80;;;4.10;;
12760;SDS011;6444;49.742;6.114;2023-09-30T08:50:47;10.90;;;3.40;;
12760;SDS011;6444;49.742;6.114;2023-09-30T08:53:13;4.43;;;4.03;;
12760;SDS011;6444;49.742;6.114;2023-09-30T08:55:40;5.37;;;4.87;;
12760;SDS011;6444;49.742;6.114;2023-09-30T08:58:07;6.32;;;5.72;;
12760;SDS011;6444;49.742;6.114;2023-09-30T09:00:33;7.03;;;4.75;;
12760;SDS011;6444;49.742;6.114;2023-09-30T09:03:00;4.45;;;4.05;;
12760;SDS011;6444;49.742;6.114;2023-09-30T09:05:27;4.15;;;3.80;;
12760;SDS011;6444;49.742;6.114;2023-09-30T09:07:54;4.90;;;3.80;;
12760;SDS011;6444;49.742;6.114;2023-09-30T09:10:21;3.60;;;3.30;;
12760;SDS011;6444;49.742;6.114;2023-09-30T09:12:54;4.70;;;3.62;;
12760;SDS011;6444;49.742;6.114;2023-09-30T09:15:23;5.62;;;3.83;;
12760;SDS011;6444;49.742;6.114;2023-09-30T09:17:47;4.60;;;3.80;;
12760;SDS011;6444;49.742;6.114;2023-09-30T09:20:20;4.50;;;4.10;;
12760;SDS011;6444;49.742;6.114;2023-09-30T09:22:47;4.28;;;3.90;;
12760;SDS011;6444;49.742;6.114;2023-09-30T09:25:13;5.70;;;5.05;;
12760;SDS011;6444;49.742;6.114;2023-09-30T09:27:40;5.75;;;5.15;;
12760;SDS011;6444;49.742;6.114;2023-09-30T09:33:04;4.05;;;3.65;;
12760;SDS011;6444;49.742;6.114;2023-09-30T09:35:33;7.20;;;3.30;;
12760;SDS011;6444;49.742;6.114;2023-09-30T09:37:58;3.90;;;3.47;;
12760;SDS011;6444;49.742;6.114;2023-09-30T09:40:28;3.65;;;3.35;;
12760;SDS011;6444;49.742;6.114;2023-09-30T09:42:57;4.35;;;3.95;;
12760;SDS011;6444;49.742;6.114;2023-09-30T09:45:24;8.82;;;3.67;;
12760;SDS011;6444;49.742;6.114;2023-09-30T09:47:50;6.15;;;3.40;;
12760;SDS011;6444;49.742;6.114;2023-09-30T09:50:17;4.18;;;3.45;;
12760;SDS011;6444;49.742;6.114;2023-09-30T09:52:43;3.75;;;3.40;;
12760;SDS011;6444;49.742;6.114;2023-09-30T09:55:10;3.90;;;3.30;;
12760;SDS011;6444;49.742;6.114;2023-09-30T09:57:37;3.80;;;3.50;;
12760;SDS011;6444;49.742;6.114;2023-09-30T10:00:04;4.22;;;3.83;;
12760;SDS011;6444;49.742;6.114;2023-09-30T10:02:33;4.75;;;3.67;;
12760;SDS011;6444;49.742;6.114;2023-09-30T10:05:00;4.57;;;3.70;;
12760;SDS011;6444;49.742;6.114;2023-09-30T10:07:30;3.35;;;3.05;;
12760;SDS011;6444;49.742;6.114;2023-09-30T10:09:57;3.20;;;2.90;;
12760;SDS011;6444;49.742;6.114;2023-09-30T10:12:23;3.65;;;3.22;;
12760;SDS011;6444;49.742;6.114;2023-09-30T10:14:49;5.15;;;3.25;;
12760;SDS011;6444;49.742;6.114;2023-09-30T10:17:16;3.80;;;3.50;;
12760;SDS011;6444;49.742;6.114;2023-09-30T10:22:31;3.30;;;3.00;;
12760;SDS011;6444;49.742;6.114;2023-09-30T10:24:59;3.58;;;3.25;;
12760;SDS011;6444;49.742;6.114;2023-09-30T10:35:17;3.67;;;3.37;;
12760;SDS011;6444;49.742;6.114;2023-09-30T10:37:47;4.72;;;3.28;;
12760;SDS011;6444;49.742;6.114;2023-09-30T10:42:55;3.60;;;3.30;;
12760;SDS011;6444;49.742;6.114;2023-09-30T10:50:52;4.22;;;3.83;;
12760;SDS011;6444;49.742;6.114;2023-09-30T10:53:21;4.28;;;3.87;;
12760;SDS011;6444;49.742;6.114;2023-09-30T10:55:54;4.50;;;4.10;;
12760;SDS011;6444;49.742;6.114;2023-09-30T10:58:20;5.78;;;3.90;;
12760;SDS011;6444;49.742;6.114;2023-09-30T11:00:53;4.68;;;4.05;;
12760;SDS011;6444;49.742;6.114;2023-09-30T11:03:19;4.45;;;3.95;;
12760;SDS011;6444;49.742;6.114;2023-09-30T11:05:47;4.28;;;3.87;;
12760;SDS011;6444;49.742;6.114;2023-09-30T11:08:13;5.22;;;3.90;;
12760;SDS011;6444;49.742;6.114;2023-09-30T11:10:46;5.10;;;3.83;;
12760;SDS011;6444;49.742;6.114;2023-09-30T11:13:07;5.45;;;3.87;;
12760;SDS011;6444;49.742;6.114;2023-09-30T11:15:34;5.10;;;4.07;;
12760;SDS011;6444;49.742;6.114;2023-09-30T11:18:19;5.12;;;3.50;;
12760;SDS011;6444;49.742;6.114;2023-09-30T11:20:42;5.20;;;4.00;;
12760;SDS011;6444;49.742;6.114;2023-09-30T11:23:09;5.40;;;3.97;;
12760;SDS011;6444;49.742;6.114;2023-09-30T11:25:36;4.55;;;3.65;;
12760;SDS011;6444;49.742;6.114;2023-09-30T11:28:14;4.03;;;3.30;;
12760;SDS011;6444;49.742;6.114;2023-09-30T11:30:54;5.03;;;3.60;;
12760;SDS011;6444;49.742;6.114;2023-09-30T11:33:19;6.60;;;4.00;;
12760;SDS011;6444;49.742;6.114;2023-09-30T11:36:03;7.18;;;3.97;;
12760;SDS011;6444;49.742;6.114;2023-09-30T11:38:29;5.62;;;3.90;;
12760;SDS011;6444;49.742;6.114;2023-09-30T11:41:00;6.57;;;3.78;;
12760;SDS011;6444;49.742;6.114;2023-09-30T11:43:26;6.20;;;3.40;;
12760;SDS011;6444;49.742;6.114;2023-09-30T11:46:03;8.18;;;4.45;;
12760;SDS011;6444;49.742;6.114;2023-09-30T11:48:20;6.00;;;3.72;;
12760;SDS011;6444;49.742;6.114;2023-09-30T11:50:47;6.85;;;3.90;;
12760;SDS011;6444;49.742;6.114;2023-09-30T11:53:16;5.90;;;4.20;;
12760;SDS011;6444;49.742;6.114;2023-09-30T11:55:42;6.10;;;4.25;;
12760;SDS011;6444;49.742;6.114;2023-09-30T11:58:09;6.87;;;4.70;;
12760;SDS011;6444;49.742;6.114;2023-09-30T12:00:35;6.32;;;4.50;;
12760;SDS011;6444;49.742;6.114;2023-09-30T12:03:02;5.80;;;4.50;;
12760;SDS011;6444;49.742;6.114;2023-09-30T12:05:29;8.43;;;5.40;;
12760;SDS011;6444;49.742;6.114;2023-09-30T12:07:55;6.80;;;4.72;;
12760;SDS011;6444;49.742;6.114;2023-09-30T12:10:22;5.75;;;4.18;;
12760;SDS011;6444;49.742;6.114;2023-09-30T12:12:49;6.12;;;4.72;;
12760;SDS011;6444;49.742;6.114;2023-09-30T12:15:16;6.32;;;4.25;;
12760;SDS011;6444;49.742;6.114;2023-09-30T12:17:43;6.65;;;4.43;;
12760;SDS011;6444;49.742;6.114;2023-09-30T12:20:09;7.85;;;4.75;;
12760;SDS011;6444;49.742;6.114;2023-09-30T12:22:36;6.50;;;4.37;;
12760;SDS011;6444;49.742;6.114;2023-09-30T12:25:02;9.82;;;4.60;;
12760;SDS011;6444;49.742;6.114;2023-09-30T12:27:29;9.38;;;4.55;;
12760;SDS011;6444;49.742;6.114;2023-09-30T12:29:56;6.45;;;4.55;;
12760;SDS011;6444;49.742;6.114;2023-09-30T12:32:22;5.55;;;3.95;;
12760;SDS011;6444;49.742;6.114;2023-09-30T12:34:49;7.25;;;5.20;;
12760;SDS011;6444;49.742;6.114;2023-09-30T12:37:16;6.75;;;4.85;;
12760;SDS011;6444;49.742;6.114;2023-09-30T12:39:42;7.18;;;5.10;;
12760;SDS011;6444;49.742;6.114;2023-09-30T12:42:09;8.80;;;4.68;;
12760;SDS011;6444;49.742;6.114;2023-09-30T12:44:35;9.05;;;3.80;;
12760;SDS011;6444;49.742;6.114;2023-09-30T12:47:02;6.05;;;4.00;;
12760;SDS011;6444;49.742;6.114;2023-09-30T12:49:29;6.07;;;3.90;;
12760;SDS011;6444;49.742;6.114;2023-09-30T12:51:55;5.43;;;3.60;;
12760;SDS011;6444;49.742;6.114;2023-09-30T12:54:22;5.68;;;3.53;;
12760;SDS011;6444;49.742;6.114;2023-09-30T12:56:49;7.15;;;3.65;;
12760;SDS011;6444;49.742;6.114;2023-09-30T12:59:15;6.60;;;3.70;;
12760;SDS011;6444;49.742;6.114;2023-09-30T13:01:43;6.75;;;3.70;;
12760;SDS011;6444;49.742;6.114;2023-09-30T13:04:10;5.70;;;3.60;;
12760;SDS011;6444;49.742;6.114;2023-09-30T13:06:36;6.50;;;3.70;;
12760;SDS011;6444;49.742;6.114;2023-09-30T13:09:03;6.85;;;3.40;;
12760;SDS011;6444;49.742;6.114;2023-09-30T13:11:30;5.97;;;3.37;;
12760;SDS011;6444;49.742;6.114;2023-09-30T13:13:56;6.55;;;3.60;;
12760;SDS011;6444;49.742;6.114;2023-09-30T13:16:23;9.07;;;3.53;;
12760;SDS011;6444;49.742;6.114;2023-09-30T13:18:49;5.55;;;3.25;;
12760;SDS011;6444;49.742;6.114;2023-09-30T13:21:16;6.65;;;3.40;;
12760;SDS011;6444;49.742;6.114;2023-09-30T13:23:43;5.60;;;3.12;;
12760;SDS011;6444;49.742;6.114;2023-09-30T13:26:09;4.35;;;3.33;;
12760;SDS011;6444;49.742;6.114;2023-09-30T13:28:36;5.37;;;3.60;;
12760;SDS011;6444;49.742;6.114;2023-09-30T13:31:03;5.07;;;2.83;;
12760;SDS011;6444;49.742;6.114;2023-09-30T13:33:29;6.10;;;3.62;;
12760;SDS011;6444;49.742;6.114;2023-09-30T13:35:56;6.07;;;3.30;;
12760;SDS011;6444;49.742;6.114;2023-09-30T13:38:22;3.83;;;2.78;;
12760;SDS011;6444;49.742;6.114;2023-09-30T13:40:50;5.85;;;3.40;;
12760;SDS011;6444;49.742;6.114;2023-09-30T13:43:17;6.12;;;3.60;;
12760;SDS011;6444;49.742;6.114;2023-09-30T13:45:43;4.93;;;3.08;;
12760;SDS011;6444;49.742;6.114;2023-09-30T13:48:10;4.43;;;3.00;;
12760;SDS011;6444;49.742;6.114;2023-09-30T13:50:37;5.62;;;3.35;;
12760;SDS011;6444;49.742;6.114;2023-09-30T13:53:04;4.93;;;3.17;;
12760;SDS011;6444;49.742;6.114;2023-09-30T13:55:30;5.20;;;3.22;;
12760;SDS011;6444;49.742;6.114;2023-09-30T13:57:57;5.72;;;3.40;;
12760;SDS011;6444;49.742;6.114;2023-09-30T14:00:24;6.00;;;3.28;;
12760;SDS011;6444;49.742;6.114;2023-09-30T14:02:51;5.25;;;3.20;;
12760;SDS011;6444;49.742;6.114;2023-09-30T14:05:18;5.40;;;3.22;;
12760;SDS011;6444;49.742;6.114;2023-09-30T14:07:44;5.57;;;3.17;;
12760;SDS011;6444;49.742;6.114;2023-09-30T14:10:12;5.95;;;3.47;;
12760;SDS011;6444;49.742;6.114;2023-09-30T14:12:38;3.85;;;3.10;;
12760;SDS011;6444;49.742;6.114;2023-09-30T14:15:05;5.50;;;3.00;;
12760;SDS011;6444;49.742;6.114;2023-09-30T14:17:32;4.07;;;3.30;;
12760;SDS011;6444;49.742;6.114;2023-09-30T14:19:58;8.35;;;4.30;;
12760;SDS011;6444;49.742;6.114;2023-09-30T14:22:25;7.32;;;4.07;;
12760;SDS011;6444;49.742;6.114;2023-09-30T14:24:52;4.57;;;3.20;;
12760;SDS011;6444;49.742;6.114;2023-09-30T14:27:18;4.68;;;3.10;;
12760;SDS011;6444;49.742;6.114;2023-09-30T14:29:45;5.05;;;2.90;;
12760;SDS011;6444;49.742;6.114;2023-09-30T14:32:11;5.18;;;3.20;;
12760;SDS011;6444;49.742;6.114;2023-09-30T14:34:38;6.03;;;3.20;;
12760;SDS011;6444;49.742;6.114;2023-09-30T14:37:05;3.58;;;2.75;;
12760;SDS011;6444;49.742;6.114;2023-09-30T14:39:31;5.20;;;2.90;;
12760;SDS011;6444;49.742;6.114;2023-09-30T14:41:58;5.47;;;2.70;;
12760;SDS011;6444;49.742;6.114;2023-09-30T14:44:25;3.70;;;2.60;;
12760;SDS011;6444;49.742;6.114;2023-09-30T14:46:51;5.83;;;3.33;;
12760;SDS011;6444;49.742;6.114;2023-09-30T14:49:18;4.65;;;3.15;;
12760;SDS011;6444;49.742;6.114;2023-09-30T14:51:44;4.87;;;3.10;;
12760;SDS011;6444;49.742;6.114;2023-09-30T14:54:17;5.68;;;2.90;;
12760;SDS011;6444;49.742;6.114;2023-09-30T14:56:44;4.70;;;3.42;;
12760;SDS011;6444;49.742;6.114;2023-09-30T14:59:11;5.45;;;3.15;;
12760;SDS011;6444;49.742;6.114;2023-09-30T15:01:37;5.87;;;3.20;;
12760;SDS011;6444;49.742;6.114;2023-09-30T15:04:04;5.07;;;3.13;;
12760;SDS011;6444;49.742;6.114;2023-09-30T15:06:30;4.93;;;2.83;;
12760;SDS011;6444;49.742;6.114;2023-09-30T15:08:57;5.95;;;2.58;;